CheckWX is a tool to help pilots better visualize weather data.  It is not intended as a substitute for an official pre-flight weather briefing.

01:05:25 UTC

KOKB METAR
Bob Maxwell Memorial Airfield Airport
Oceanside, California, USA
Current

13 mins ago

KOKB 240052Z AUTO 30008KT 10SM CLR 13/06 A3025 RMK AO2 SLP242 T01280061
Observed
Feb-24 @ 00:52 UTC
Wind
  • 300° at 8 KTS
Visibility
10 SM
Flight Rules
VFR
Cloud Levels
  • Clear skies
Temperature
13°C / 55°F
Dewpoint
C / 43°F
Humidity
63%
Altimeter
30.25" Hg
Pressure
1024.2 hPa
Previous

1 hour ago

KOKB 232352Z AUTO 30012KT 10SM CLR 14/05 A3025 RMK AO2 SLP241 T01390050 10156 20128 56006
Observed
Feb-23 @ 23:52 UTC
Wind
  • 300° at 12 KTS
Visibility
10 SM
Flight Rules
VFR
Cloud Levels
  • Clear skies
Temperature
14°C / 57°F
Dewpoint
C / 41°F
Humidity
55%
Altimeter
30.25" Hg
Pressure
1024.1 hPa
Previous

2 hours ago

KOKB 232252Z AUTO 28009G17KT 10SM CLR 14/04 A3025 RMK AO2 SLP241 T01440044
Observed
Feb-23 @ 22:52 UTC
Wind
  • 280° at 9 KTS
  • Gusting to 17 KTS
Visibility
10 SM
Flight Rules
VFR
Cloud Levels
  • Clear skies
Temperature
14°C / 57°F
Dewpoint
C / 39°F
Humidity
51%
Altimeter
30.25" Hg
Pressure
1024.1 hPa